createdAt,value
2023-03-11T04:10:42.228Z,1.50
2023-03-11T04:12:15.469Z,1.50
2023-03-11T04:13:47.522Z,1.67
2023-03-11T04:15:19.292Z,1.50
2023-03-11T04:16:51.368Z,1.60
2023-03-11T04:18:23.625Z,1.80
2023-03-11T04:19:55.297Z,1.37
2023-03-11T04:21:27.035Z,1.80
2023-03-11T04:22:59.935Z,2.00
2023-03-11T04:24:31.980Z,1.50
2023-03-11T04:26:04.308Z,1.80
2023-03-11T04:27:38.319Z,1.53
2023-03-11T04:29:11.003Z,1.50
2023-03-11T04:30:47.206Z,1.97
2023-03-11T04:32:18.994Z,1.67
2023-03-11T04:33:51.134Z,1.50
2023-03-11T04:35:23.126Z,1.53
2023-03-11T04:36:55.954Z,1.63
2023-03-11T04:38:33.286Z,2.37
2023-03-11T04:40:06.876Z,1.53
2023-03-11T04:41:39.613Z,1.33
2023-03-11T04:43:12.319Z,1.53
2023-03-11T04:44:44.014Z,1.50
2023-03-11T04:46:16.068Z,1.67
2023-03-11T04:47:49.572Z,2.83
2023-03-11T04:49:21.496Z,2.40
2023-03-11T04:50:55.504Z,1.47
2023-03-11T04:52:28.015Z,1.90
2023-03-11T04:54:00.244Z,1.63
2023-03-11T04:55:33.927Z,1.70
2023-03-11T04:57:06.092Z,1.50
2023-03-11T04:58:38.160Z,1.70
2023-03-11T05:00:12.177Z,1.50
2023-03-11T05:01:47.050Z,1.50
2023-03-11T05:03:19.272Z,1.60
2023-03-11T05:04:51.179Z,1.40
2023-03-11T05:06:22.956Z,1.73
2023-03-11T05:07:54.705Z,1.47
2023-03-11T05:09:26.785Z,1.30
2023-03-11T05:10:58.722Z,1.53
2023-03-11T05:12:30.640Z,1.70
2023-03-11T05:14:02.455Z,1.53
2023-03-11T05:15:34.285Z,2.03
2023-03-11T05:17:07.969Z,1.93
2023-03-11T05:18:39.769Z,1.87
2023-03-11T05:20:15.495Z,2.13
2023-03-11T05:21:47.356Z,2.10
2023-03-11T05:23:19.462Z,1.80
2023-03-11T05:24:51.204Z,1.80
2023-03-11T05:26:23.037Z,1.73
2023-03-11T05:27:54.797Z,1.20
2023-03-11T05:29:26.826Z,2.17
2023-03-11T05:30:59.435Z,1.77
2023-03-11T05:32:31.559Z,1.70
2023-03-11T05:34:03.538Z,2.23
2023-03-11T05:35:35.555Z,2.00
2023-03-11T05:37:07.912Z,2.07
2023-03-11T05:38:40.019Z,1.80
2023-03-11T05:40:12.467Z,2.03
2023-03-11T05:41:44.233Z,2.13
2023-03-11T05:43:16.233Z,1.70
2023-03-11T05:44:51.484Z,1.50
2023-03-11T05:46:23.709Z,1.70
2023-03-11T05:47:55.485Z,1.47
2023-03-11T05:49:27.555Z,1.63
2023-03-11T05:51:00.078Z,1.73
2023-03-11T05:52:33.716Z,2.10
2023-03-11T05:54:11.305Z,2.20
2023-03-11T05:55:44.596Z,2.07
2023-03-11T05:57:16.359Z,1.70
2023-03-11T05:58:50.430Z,2.30
2023-03-11T06:00:22.847Z,2.40
2023-03-11T06:01:57.143Z,2.33
2023-03-11T06:03:29.495Z,2.20
2023-03-11T06:05:01.433Z,1.77
2023-03-11T06:06:33.396Z,2.30
2023-03-11T06:08:05.138Z,2.10
2023-03-11T06:09:37.064Z,2.20
2023-03-11T06:11:11.247Z,2.43
2023-03-11T06:12:44.703Z,1.80
2023-03-11T06:14:32.592Z,1.53
2023-03-11T06:16:07.003Z,2.00
2023-03-11T06:17:38.762Z,1.80
2023-03-11T06:19:11.577Z,2.50
2023-03-11T06:20:47.612Z,1.90
2023-03-11T06:22:19.378Z,1.80
2023-03-11T06:23:51.362Z,1.93
2023-03-11T06:25:23.798Z,1.73
2023-03-11T06:26:56.794Z,3.17
2023-03-11T06:28:31.173Z,2.03
2023-03-11T06:30:03.666Z,2.33
2023-03-11T06:31:40.094Z,2.03
2023-03-11T06:33:15.016Z,2.40
2023-03-11T06:34:51.669Z,1.97
2023-03-11T06:36:23.893Z,1.80
2023-03-11T06:37:56.037Z,1.60
2023-03-11T06:39:27.869Z,1.80
2023-03-11T06:41:04.930Z,2.20
2023-03-11T06:42:37.553Z,2.00
2023-03-11T06:44:11.784Z,2.60
2023-03-11T06:45:44.529Z,2.77
2023-03-11T06:47:16.749Z,2.27
2023-03-11T06:48:52.150Z,1.90
2023-03-11T06:50:25.952Z,2.13
2023-03-11T06:51:59.281Z,2.60
2023-03-11T06:53:31.113Z,2.30
2023-03-11T06:55:03.937Z,2.10
2023-03-11T06:56:36.812Z,1.93
2023-03-11T06:58:11.450Z,2.07
2023-03-11T06:59:43.261Z,2.00
2023-03-11T07:01:25.550Z,2.20
2023-03-11T07:02:59.245Z,1.80
2023-03-11T07:04:32.126Z,2.30
2023-03-11T07:06:06.618Z,3.50
2023-03-11T07:07:38.539Z,1.90
2023-03-11T07:09:10.348Z,2.00
2023-03-11T07:10:46.742Z,2.10
2023-03-11T07:12:18.445Z,2.10
2023-03-11T07:13:51.108Z,2.80
2023-03-11T07:15:22.988Z,2.20
2023-03-11T07:16:54.790Z,2.43
2023-03-11T07:18:33.854Z,1.90
2023-03-11T07:20:06.998Z,3.00
2023-03-11T07:21:39.439Z,2.50
2023-03-11T07:23:11.204Z,2.80
2023-03-11T07:24:46.571Z,8.10
2023-03-11T07:26:18.737Z,37.20
2023-03-11T07:27:50.562Z,16.50
2023-03-11T07:29:22.276Z,7.50
2023-03-11T07:30:54.243Z,20.00
2023-03-11T07:32:26.037Z,9.93
2023-03-11T07:34:00.434Z,5.90
2023-03-11T07:35:32.251Z,10.97
2023-03-11T07:37:04.219Z,12.73
2023-03-11T07:38:36.523Z,11.90
2023-03-11T07:40:08.936Z,6.37
2023-03-11T07:41:40.732Z,7.40
2023-03-11T07:43:12.486Z,10.00
2023-03-11T07:44:44.254Z,8.10
2023-03-11T07:46:18.447Z,7.17
2023-03-11T07:47:50.329Z,9.20
2023-03-11T07:49:22.049Z,9.83
2023-03-11T07:51:07.452Z,7.20
2023-03-11T07:52:39.809Z,10.00
2023-03-11T07:54:12.778Z,6.10
2023-03-11T07:55:44.601Z,5.17
2023-03-11T07:57:17.128Z,7.47
2023-03-11T07:58:49.123Z,7.60
2023-03-11T08:00:21.122Z,4.90
2023-03-11T08:01:52.826Z,5.23
2023-03-11T08:03:25.246Z,4.37
2023-03-11T08:04:57.280Z,4.37
2023-03-11T08:06:31.583Z,4.30
2023-03-11T08:08:03.684Z,3.80
2023-03-11T08:09:36.210Z,10.37
2023-03-11T08:11:08.461Z,12.80
2023-03-11T08:12:40.158Z,7.47
2023-03-11T08:14:12.207Z,10.80
2023-03-11T08:15:44.031Z,6.73
2023-03-11T08:17:15.760Z,7.17
2023-03-11T08:18:49.152Z,7.73
2023-03-11T08:20:21.161Z,10.80
2023-03-11T08:21:52.838Z,7.90
2023-03-11T08:23:24.688Z,10.07
2023-03-11T08:24:56.548Z,8.23
2023-03-11T08:26:29.481Z,8.80
2023-03-11T08:28:01.204Z,8.60
2023-03-11T08:29:33.496Z,7.87
2023-03-11T08:31:16.390Z,5.73
2023-03-11T08:32:49.334Z,4.80
2023-03-11T08:34:22.288Z,4.53
2023-03-11T08:35:54.682Z,3.20
2023-03-11T08:37:26.400Z,3.87
2023-03-11T08:38:58.920Z,4.13
2023-03-11T08:40:30.709Z,3.33
2023-03-11T08:42:03.195Z,3.10
2023-03-11T08:43:35.209Z,4.20
2023-03-11T08:45:08.009Z,4.50
2023-03-11T08:46:39.940Z,4.10
2023-03-11T08:48:12.693Z,4.23
2023-03-11T08:49:44.801Z,4.80
2023-03-11T08:51:17.848Z,4.57
2023-03-11T08:52:49.624Z,3.70
2023-03-11T08:54:24.122Z,4.80
2023-03-11T08:55:55.859Z,5.97
2023-03-11T08:57:27.641Z,5.03
2023-03-11T08:59:08.519Z,5.20
2023-03-11T09:00:40.304Z,4.27
2023-03-11T09:02:12.004Z,4.80
2023-03-11T09:03:43.672Z,4.40
2023-03-11T09:05:15.672Z,5.73
2023-03-11T09:06:49.297Z,5.00
2023-03-11T09:08:20.993Z,4.63
2023-03-11T09:09:52.772Z,4.70
2023-03-11T09:11:24.748Z,4.47
2023-03-11T09:12:56.478Z,3.77
2023-03-11T09:14:28.318Z,2.73
2023-03-11T09:16:00.282Z,3.10
2023-03-11T09:17:32.146Z,2.70
2023-03-11T09:19:06.931Z,2.27
2023-03-11T09:20:39.548Z,2.87
2023-03-11T09:22:11.859Z,2.87
2023-03-11T09:23:44.623Z,2.77
2023-03-11T09:25:16.794Z,2.47
2023-03-11T09:26:48.503Z,2.43
2023-03-11T09:28:20.179Z,2.60
2023-03-11T09:29:51.881Z,2.20
2023-03-11T09:31:24.218Z,2.07
2023-03-11T09:32:56.028Z,3.10
2023-03-11T09:34:27.767Z,2.80
2023-03-11T09:35:59.723Z,2.50
2023-03-11T09:37:31.425Z,2.13
2023-03-11T09:39:03.185Z,1.97
2023-03-11T09:40:47.318Z,1.70
2023-03-11T09:42:38.577Z,2.47
2023-03-11T09:44:34.758Z,5.43
2023-03-11T09:46:20.833Z,2.73
2023-03-11T09:48:04.089Z,1.90
2023-03-11T09:49:44.510Z,2.20
2023-03-11T09:51:25.741Z,1.83
2023-03-11T09:53:26.215Z,22.10
2023-03-11T09:54:59.740Z,9.97
2023-03-11T09:56:34.464Z,4.20
2023-03-11T09:58:17.918Z,3.40
2023-03-11T09:59:50.322Z,3.40
2023-03-11T10:01:30.847Z,2.70
2023-03-11T10:03:06.403Z,1.83
2023-03-11T10:05:02.559Z,2.50
2023-03-11T10:06:34.361Z,1.77
2023-03-11T10:08:19.593Z,1.80
2023-03-11T10:09:58.628Z,1.80
2023-03-11T10:11:51.500Z,2.40
2023-03-11T10:13:36.985Z,2.00
2023-03-11T10:15:24.738Z,2.67
2023-03-11T10:17:20.370Z,1.73
2023-03-11T10:19:10.886Z,1.60
2023-03-11T10:20:58.535Z,3.30
2023-03-11T10:22:59.429Z,2.20
2023-03-11T10:24:50.193Z,2.10
2023-03-11T10:26:41.526Z,2.20
2023-03-11T10:28:16.629Z,2.80
2023-03-11T10:30:03.876Z,2.47
2023-03-11T10:31:49.006Z,2.00
2023-03-11T10:33:33.987Z,2.60
2023-03-11T10:35:24.007Z,1.90
2023-03-11T10:37:03.797Z,1.90
2023-03-11T10:38:48.911Z,1.90
2023-03-11T10:40:30.649Z,1.80
2023-03-11T10:42:05.807Z,1.37
2023-03-11T10:43:41.283Z,1.40
2023-03-11T10:45:14.562Z,1.30
2023-03-11T10:46:46.462Z,1.27
2023-03-11T10:48:19.978Z,1.43
2023-03-11T10:49:54.887Z,1.10
2023-03-11T10:51:35.734Z,1.00
2023-03-11T10:53:15.764Z,1.07
2023-03-11T10:54:58.471Z,1.30
2023-03-11T10:56:34.358Z,1.20
2023-03-11T10:58:12.570Z,1.30
2023-03-11T10:59:49.592Z,1.17
2023-03-11T11:01:22.245Z,1.20
2023-03-11T11:02:59.877Z,1.20
2023-03-11T11:04:41.152Z,1.67
2023-03-11T11:06:36.767Z,1.40
2023-03-11T11:08:17.077Z,1.40
2023-03-11T11:10:16.922Z,1.30
2023-03-11T11:12:07.057Z,1.10
2023-03-11T11:13:38.897Z,1.70
2023-03-11T11:15:31.067Z,1.20
2023-03-11T11:17:02.798Z,1.07
2023-03-11T11:18:45.681Z,2.13
2023-03-11T11:20:20.253Z,2.00
2023-03-11T11:21:52.326Z,2.63
2023-03-11T11:23:26.988Z,3.00
2023-03-11T11:24:58.903Z,2.90
2023-03-11T11:26:30.736Z,2.50
2023-03-11T11:28:20.846Z,1.87
2023-03-11T11:30:08.702Z,1.60
2023-03-11T11:31:45.246Z,1.60
2023-03-11T11:33:33.076Z,2.20
2023-03-11T11:35:08.022Z,1.70
2023-03-11T11:36:40.188Z,1.30
2023-03-11T11:38:11.964Z,1.10
2023-03-11T11:39:52.173Z,1.20
2023-03-11T11:41:26.574Z,1.20
2023-03-11T11:43:19.614Z,1.27
2023-03-11T11:45:12.343Z,1.30
2023-03-11T11:46:51.034Z,1.33
2023-03-11T11:48:39.496Z,0.97
2023-03-11T11:50:18.144Z,1.50
2023-03-11T11:52:18.250Z,1.40
2023-03-11T11:54:02.607Z,1.10
2023-03-11T11:55:35.441Z,1.20
2023-03-11T11:57:13.525Z,1.20
2023-03-11T11:58:45.496Z,0.90
2023-03-11T12:00:24.831Z,1.10
2023-03-11T12:02:13.201Z,1.10
2023-03-11T12:04:00.277Z,1.10
2023-03-11T12:05:35.792Z,1.00
2023-03-11T12:07:44.815Z,1.00
2023-03-11T12:09:38.646Z,0.90
2023-03-11T12:11:26.193Z,1.20
2023-03-11T12:13:22.637Z,1.60
2023-03-11T12:15:02.741Z,1.10
2023-03-11T12:16:57.090Z,1.20
2023-03-11T12:18:40.383Z,1.40
2023-03-11T12:20:15.506Z,1.30
2023-03-11T12:22:08.378Z,1.33
2023-03-11T12:23:40.019Z,1.60
2023-03-11T12:25:22.585Z,1.20
2023-03-11T12:26:58.940Z,1.00
2023-03-11T12:28:36.424Z,1.30
2023-03-11T12:30:22.264Z,1.30
2023-03-11T12:31:56.782Z,1.30
2023-03-11T12:33:42.470Z,1.43
2023-03-11T12:35:32.141Z,1.17
2023-03-11T12:37:14.586Z,1.30
2023-03-11T12:38:47.998Z,1.40
2023-03-11T12:40:50.132Z,1.30
2023-03-11T12:42:25.158Z,1.50
2023-03-11T12:44:00.408Z,1.30
2023-03-11T12:45:52.476Z,1.30
2023-03-11T12:47:28.735Z,1.30
2023-03-11T12:49:11.963Z,1.20
2023-03-11T12:50:43.793Z,1.40
2023-03-11T12:52:27.971Z,1.60
2023-03-11T12:54:19.675Z,1.30
2023-03-11T12:56:05.543Z,1.90
2023-03-11T12:57:44.646Z,1.30
2023-03-11T12:59:16.422Z,1.50
2023-03-11T13:01:07.147Z,1.90
2023-03-11T13:03:00.227Z,2.20
2023-03-11T13:05:01.682Z,1.67
2023-03-11T13:07:04.221Z,2.27
2023-03-11T13:08:54.775Z,1.83
2023-03-11T13:10:45.161Z,1.40
2023-03-11T13:12:45.235Z,1.77
2023-03-11T13:14:31.756Z,1.70
2023-03-11T13:16:12.639Z,1.60
2023-03-11T13:18:14.804Z,2.30
2023-03-11T13:19:57.241Z,3.10
2023-03-11T13:21:29.835Z,3.13
2023-03-11T13:23:01.450Z,2.90
2023-03-11T13:24:33.096Z,2.57
2023-03-11T13:26:13.818Z,2.00
2023-03-11T13:27:49.292Z,2.90
2023-03-11T13:29:44.427Z,1.93
2023-03-11T13:31:21.534Z,2.80
2023-03-11T13:33:17.136Z,3.80
2023-03-11T13:34:57.443Z,2.30
2023-03-11T13:36:49.873Z,2.20
2023-03-11T13:39:00.395Z,2.27
2023-03-11T13:40:38.146Z,2.27
2023-03-11T13:42:33.304Z,1.80
2023-03-11T13:44:24.458Z,1.60
2023-03-11T13:46:07.175Z,1.67
2023-03-11T13:47:44.828Z,1.67
2023-03-11T13:49:52.131Z,2.00
2023-03-11T13:51:35.210Z,2.13
2023-03-11T13:53:11.273Z,2.13
2023-03-11T13:54:52.987Z,3.42
2023-03-11T13:56:31.510Z,3.10
2023-03-11T13:58:24.431Z,4.97
2023-03-11T14:00:03.850Z,5.30
2023-03-11T14:01:49.470Z,4.73
2023-03-11T14:03:24.118Z,5.93
2023-03-11T14:05:05.328Z,4.27
2023-03-11T14:06:37.052Z,2.90
2023-03-11T14:08:29.662Z,2.13
2023-03-11T14:10:29.849Z,1.97
2023-03-11T14:12:07.750Z,1.60
2023-03-11T14:13:43.920Z,1.43
2023-03-11T14:15:24.598Z,1.70
2023-03-11T14:17:01.483Z,2.00
2023-03-11T14:18:39.217Z,1.57
2023-03-11T14:20:22.052Z,1.70
2023-03-11T14:21:54.749Z,1.40
2023-03-11T14:23:32.620Z,1.57
2023-03-11T14:25:10.896Z,1.70
2023-03-11T14:26:43.388Z,1.50
2023-03-11T14:28:20.878Z,1.80
2023-03-11T14:29:52.828Z,1.90
2023-03-11T14:31:36.637Z,1.50
2023-03-11T14:33:23.976Z,1.87
2023-03-11T14:34:56.623Z,1.77
2023-03-11T14:36:28.335Z,1.50
2023-03-11T14:38:00.592Z,1.63
2023-03-11T14:39:34.076Z,1.40
2023-03-11T14:41:06.850Z,1.40
2023-03-11T14:42:43.565Z,1.10
2023-03-11T14:44:15.489Z,1.50
2023-03-11T14:45:49.549Z,1.10
2023-03-11T14:47:43.469Z,1.90
2023-03-11T14:49:21.178Z,1.73
2023-03-11T14:50:58.127Z,1.50
2023-03-11T14:52:44.902Z,1.27
2023-03-11T14:54:30.982Z,1.20
2023-03-11T14:56:15.970Z,1.20
2023-03-11T14:57:59.530Z,1.20
2023-03-11T14:59:33.226Z,1.20
2023-03-11T15:01:20.320Z,1.37
2023-03-11T15:03:18.529Z,1.10
2023-03-11T15:04:51.631Z,1.43
2023-03-11T15:06:27.358Z,1.00
2023-03-11T15:08:02.610Z,1.50
2023-03-11T15:09:40.248Z,1.50
2023-03-11T15:11:11.880Z,1.50
2023-03-11T15:12:45.214Z,1.43
2023-03-11T15:14:35.361Z,1.67
2023-03-11T15:16:21.857Z,1.43
2023-03-11T15:17:56.384Z,2.07
2023-03-11T15:19:28.111Z,1.20
2023-03-11T15:21:13.548Z,1.30
2023-03-11T15:22:45.247Z,2.00
2023-03-11T15:24:28.571Z,1.80
2023-03-11T15:26:00.490Z,1.97
2023-03-11T15:27:33.568Z,1.57
2023-03-11T15:29:15.419Z,1.93
2023-03-11T15:30:47.304Z,1.30
2023-03-11T15:32:35.860Z,1.57
2023-03-11T15:34:16.827Z,1.53
2023-03-11T15:35:49.335Z,1.80
2023-03-11T15:37:21.889Z,1.83
2023-03-11T15:39:19.515Z,1.37
2023-03-11T15:40:57.972Z,1.50
2023-03-11T15:42:29.738Z,1.30
2023-03-11T15:44:03.972Z,1.50
2023-03-11T15:45:39.812Z,1.00
2023-03-11T15:47:17.756Z,1.37
2023-03-11T15:48:49.564Z,1.13
2023-03-11T15:50:28.567Z,1.13
2023-03-11T15:52:04.062Z,1.20
2023-03-11T15:53:35.787Z,1.10
2023-03-11T15:55:09.552Z,1.17
2023-03-11T15:56:44.241Z,1.17
2023-03-11T15:58:17.783Z,1.37
2023-03-11T15:59:51.126Z,1.20
2023-03-11T16:01:28.398Z,1.30
2023-03-11T16:03:02.733Z,1.37
2023-03-11T16:04:34.604Z,1.30
2023-03-11T16:06:06.687Z,1.40
2023-03-11T16:07:40.073Z,1.20
2023-03-11T16:09:12.770Z,1.80
2023-03-11T16:10:44.800Z,1.50
2023-03-11T16:12:21.961Z,1.60
2023-03-11T16:13:53.694Z,1.50
2023-03-11T16:15:31.080Z,1.47
2023-03-11T16:17:02.960Z,1.33
2023-03-11T16:18:35.651Z,1.57
2023-03-11T16:20:07.610Z,1.87
2023-03-11T16:21:49.287Z,1.60
2023-03-11T16:23:26.299Z,1.30
2023-03-11T16:24:59.777Z,1.77
2023-03-11T16:26:32.410Z,1.30
2023-03-11T16:28:04.953Z,1.50
2023-03-11T16:29:36.767Z,1.30
2023-03-11T16:31:09.459Z,1.73
2023-03-11T16:32:41.234Z,1.90
2023-03-11T16:34:13.176Z,1.30
2023-03-11T16:35:45.682Z,1.63
2023-03-11T16:37:20.736Z,1.53
2023-03-11T16:38:52.518Z,1.63
2023-03-11T16:40:27.144Z,1.50
2023-03-11T16:41:58.908Z,2.07
2023-03-11T16:43:31.996Z,2.17
2023-03-11T16:45:04.209Z,2.20
2023-03-11T16:46:36.063Z,2.80
2023-03-11T16:48:08.007Z,3.70
2023-03-11T16:49:39.704Z,4.10
2023-03-11T16:51:11.456Z,4.40
2023-03-11T16:52:43.209Z,3.90
2023-03-11T16:54:14.936Z,3.33
2023-03-11T16:55:46.991Z,2.80
2023-03-11T16:57:18.758Z,2.77
2023-03-11T16:58:50.650Z,2.57
2023-03-11T17:00:22.363Z,2.40
2023-03-11T17:01:54.119Z,2.00
2023-03-11T17:03:29.375Z,3.03
2023-03-11T17:05:04.612Z,2.47
2023-03-11T17:06:36.453Z,2.00
2023-03-11T17:08:08.536Z,1.77
2023-03-11T17:09:40.240Z,1.77
2023-03-11T17:11:20.629Z,2.03
2023-03-11T17:12:52.600Z,2.20
2023-03-11T17:14:25.709Z,2.73
2023-03-11T17:16:01.560Z,3.50
2023-03-11T17:17:33.504Z,2.83
2023-03-11T17:19:05.199Z,1.80
2023-03-11T17:20:40.496Z,2.00
2023-03-11T17:22:13.495Z,2.13
2023-03-11T17:23:45.462Z,2.23
2023-03-11T17:25:17.231Z,2.60
2023-03-11T17:26:48.977Z,2.63
2023-03-11T17:28:20.797Z,1.97
2023-03-11T17:29:54.852Z,2.10
2023-03-11T17:31:26.807Z,3.17
2023-03-11T17:32:58.643Z,3.20
2023-03-11T17:34:30.458Z,3.67
2023-03-11T17:36:03.721Z,3.40
2023-03-11T17:37:35.742Z,4.03
2023-03-11T17:39:07.441Z,3.83
2023-03-11T17:40:39.229Z,3.27
2023-03-11T17:42:10.927Z,3.50
2023-03-11T17:43:43.053Z,2.70
2023-03-11T17:45:14.950Z,3.20
2023-03-11T17:46:46.709Z,2.30
2023-03-11T17:48:18.502Z,2.60
2023-03-11T17:49:50.332Z,2.93
2023-03-11T17:51:25.582Z,2.87
2023-03-11T17:52:57.639Z,2.80
2023-03-11T17:54:29.398Z,2.40
2023-03-11T17:56:01.200Z,2.57
2023-03-11T17:57:44.424Z,2.80
2023-03-11T17:59:18.018Z,2.57
2023-03-11T18:00:49.828Z,2.30
2023-03-11T18:02:21.661Z,2.47
2023-03-11T18:03:53.934Z,2.30
2023-03-11T18:05:25.617Z,2.10
2023-03-11T18:06:57.348Z,2.23
2023-03-11T18:08:29.680Z,2.10
2023-03-11T18:10:01.363Z,2.27
2023-03-11T18:11:33.129Z,3.10
2023-03-11T18:13:04.858Z,2.33
2023-03-11T18:14:37.059Z,2.57
2023-03-11T18:16:12.694Z,2.80
2023-03-11T18:17:46.368Z,2.87
2023-03-11T18:19:18.109Z,3.33
2023-03-11T18:20:49.869Z,3.40
2023-03-11T18:22:21.550Z,4.00
2023-03-11T18:23:58.108Z,3.60
2023-03-11T18:25:29.986Z,3.60
2023-03-11T18:27:01.713Z,3.43
2023-03-11T18:28:34.120Z,3.67
2023-03-11T18:30:08.084Z,3.57
2023-03-11T18:31:40.186Z,4.80
2023-03-11T18:33:12.283Z,3.57
2023-03-11T18:34:44.087Z,3.63
2023-03-11T18:36:21.893Z,3.37
2023-03-11T18:37:53.581Z,3.30
2023-03-11T18:39:25.383Z,3.53
2023-03-11T18:40:57.951Z,3.73
2023-03-11T18:42:29.688Z,3.33
2023-03-11T18:44:02.086Z,3.63
2023-03-11T18:45:34.153Z,3.70
2023-03-11T18:47:05.985Z,3.67
2023-03-11T18:48:38.382Z,3.70
2023-03-11T18:50:11.062Z,3.40
2023-03-11T18:51:43.010Z,2.93
2023-03-11T18:53:14.660Z,3.70
2023-03-11T18:54:46.451Z,3.33
2023-03-11T18:56:18.415Z,3.60
2023-03-11T18:57:50.178Z,3.80
2023-03-11T18:59:21.896Z,4.20
2023-03-11T19:00:53.727Z,4.10
2023-03-11T19:02:26.075Z,4.53
2023-03-11T19:03:59.737Z,4.33
2023-03-11T19:05:31.450Z,5.03
2023-03-11T19:07:03.171Z,5.00
2023-03-11T19:08:34.912Z,4.57
2023-03-11T19:10:06.880Z,4.20
2023-03-11T19:11:38.584Z,4.00
2023-03-11T19:13:10.948Z,3.53
2023-03-11T19:14:42.759Z,3.57
2023-03-11T19:16:17.756Z,3.63
2023-03-11T19:18:04.250Z,3.10
2023-03-11T19:19:37.758Z,2.90
2023-03-11T19:21:12.453Z,3.20
2023-03-11T19:22:44.136Z,2.77
2023-03-11T19:24:15.972Z,3.47
2023-03-11T19:26:02.540Z,3.13
2023-03-11T19:27:35.133Z,3.67
2023-03-11T19:29:08.616Z,3.90
2023-03-11T19:30:40.309Z,3.73
2023-03-11T19:32:12.100Z,5.17
2023-03-11T19:33:46.878Z,5.10
2023-03-11T19:35:20.899Z,4.70
2023-03-11T19:36:52.604Z,3.70
2023-03-11T19:38:25.538Z,3.80
2023-03-11T19:39:57.236Z,3.60
2023-03-11T19:41:29.101Z,3.60
2023-03-11T19:43:00.882Z,3.47
2023-03-11T19:44:32.592Z,3.40
2023-03-11T19:46:05.533Z,3.60
2023-03-11T19:47:37.882Z,3.27
2023-03-11T19:49:09.608Z,3.00
2023-03-11T19:50:41.440Z,3.20
2023-03-11T19:52:13.623Z,3.07
2023-03-11T19:53:45.912Z,3.20
2023-03-11T19:55:17.622Z,3.00
2023-03-11T19:56:49.964Z,3.97
2023-03-11T19:58:23.695Z,3.17
2023-03-11T19:59:56.102Z,3.20
2023-03-11T20:01:30.392Z,3.80
2023-03-11T20:03:02.738Z,3.77
2023-03-11T20:04:34.616Z,2.83
2023-03-11T20:06:06.807Z,3.50
2023-03-11T20:07:38.576Z,2.90
2023-03-11T20:09:11.526Z,3.47
2023-03-11T20:10:45.657Z,3.33
2023-03-11T20:12:17.376Z,3.30
2023-03-11T20:13:49.159Z,3.90
2023-03-11T20:15:20.862Z,3.63
2023-03-11T20:16:52.758Z,3.27
2023-03-11T20:18:24.537Z,3.03
2023-03-11T20:19:56.743Z,3.60
2023-03-11T20:21:28.472Z,3.37
2023-03-11T20:23:03.715Z,3.27
2023-03-11T20:24:35.484Z,3.10
2023-03-11T20:26:12.804Z,3.53
2023-03-11T20:27:44.640Z,3.80
2023-03-11T20:29:19.429Z,3.77
2023-03-11T20:30:51.324Z,4.23
2023-03-11T20:32:23.193Z,3.70
2023-03-11T20:33:56.348Z,3.77
2023-03-11T20:35:28.113Z,4.13
2023-03-11T20:36:59.974Z,3.87
2023-03-11T20:38:31.777Z,5.10
2023-03-11T20:40:06.260Z,4.40
2023-03-11T20:41:39.897Z,4.87
2023-03-11T20:43:11.602Z,4.30
2023-03-11T20:44:43.320Z,5.47
2023-03-11T20:46:15.055Z,5.47
2023-03-11T20:47:47.795Z,5.10
2023-03-11T20:49:19.569Z,5.43
2023-03-11T20:50:51.325Z,6.20
2023-03-11T20:52:23.080Z,6.03
2023-03-11T20:53:54.871Z,6.50
2023-03-11T20:55:26.616Z,6.43
2023-03-11T20:56:58.347Z,6.77
2023-03-11T20:58:30.311Z,6.70
2023-03-11T21:00:02.132Z,7.13
2023-03-11T21:01:35.308Z,6.60
2023-03-11T21:03:07.130Z,6.30
2023-03-11T21:04:43.906Z,6.40
2023-03-11T21:06:24.521Z,7.03
2023-03-11T21:07:56.284Z,7.03
2023-03-11T21:09:28.080Z,7.53
2023-03-11T21:11:01.413Z,7.63
2023-03-11T21:12:33.256Z,7.30
2023-03-11T21:14:05.825Z,8.13
2023-03-11T21:15:37.618Z,8.50
2023-03-11T21:17:09.402Z,8.70
2023-03-11T21:18:43.270Z,8.70
2023-03-11T21:20:16.720Z,8.80
2023-03-11T21:21:51.781Z,7.80
2023-03-11T21:23:23.925Z,8.47
2023-03-11T21:24:55.852Z,7.60
2023-03-11T21:26:28.066Z,7.93
2023-03-11T21:27:59.805Z,7.90
2023-03-11T21:29:31.611Z,8.00
2023-03-11T21:31:10.688Z,7.00
2023-03-11T21:32:42.636Z,6.83
2023-03-11T21:34:14.385Z,6.63
2023-03-11T21:35:53.867Z,6.43
2023-03-11T21:37:26.649Z,6.57
2023-03-11T21:38:58.481Z,6.63
2023-03-11T21:40:30.271Z,6.43
2023-03-11T21:42:02.454Z,6.00
2023-03-11T21:43:34.579Z,6.53
2023-03-11T21:45:06.970Z,5.43
2023-03-11T21:46:38.956Z,5.33
2023-03-11T21:48:13.504Z,5.07
2023-03-11T21:49:45.258Z,5.33
2023-03-11T21:51:21.621Z,6.10
2023-03-11T21:52:53.437Z,5.40
2023-03-11T21:54:25.116Z,5.70
2023-03-11T21:55:57.199Z,5.67
2023-03-11T21:57:29.018Z,5.23
2023-03-11T21:59:00.782Z,5.60
2023-03-11T22:00:32.672Z,5.20
2023-03-11T22:02:04.491Z,5.33
2023-03-11T22:03:37.549Z,5.40
2023-03-11T22:05:09.662Z,5.23
2023-03-11T22:06:41.505Z,5.20
2023-03-11T22:08:14.581Z,4.90
2023-03-11T22:09:46.361Z,5.27
2023-03-11T22:11:20.113Z,4.60
2023-03-11T22:12:51.860Z,4.60
2023-03-11T22:14:24.504Z,4.10
2023-03-11T22:15:56.500Z,4.57
2023-03-11T22:17:28.403Z,4.50
2023-03-11T22:19:00.273Z,4.20
2023-03-11T22:20:31.963Z,4.33
2023-03-11T22:22:03.730Z,3.90
2023-03-11T22:23:35.705Z,4.20
2023-03-11T22:25:08.104Z,4.27
2023-03-11T22:26:39.815Z,3.87
2023-03-11T22:28:12.824Z,4.27
2023-03-11T22:29:44.611Z,3.60
2023-03-11T22:31:18.395Z,3.80
2023-03-11T22:32:50.768Z,3.90
2023-03-11T22:34:22.626Z,3.87
2023-03-11T22:35:56.414Z,3.87
2023-03-11T22:37:28.261Z,3.70
2023-03-11T22:39:02.418Z,4.10
2023-03-11T22:40:35.278Z,4.30
2023-03-11T22:42:07.176Z,4.60
2023-03-11T22:43:39.212Z,4.20
2023-03-11T22:45:11.342Z,4.90
2023-03-11T22:46:43.021Z,4.63
2023-03-11T22:48:14.889Z,4.23
2023-03-11T22:49:46.764Z,5.00
2023-03-11T22:51:18.486Z,5.10
2023-03-11T22:52:50.219Z,4.20
2023-03-11T22:54:22.435Z,5.00
2023-03-11T22:55:54.824Z,4.87
2023-03-11T22:57:29.883Z,4.53
2023-03-11T22:59:01.870Z,4.47
2023-03-11T23:00:33.918Z,4.13
2023-03-11T23:02:05.777Z,4.67
2023-03-11T23:03:38.688Z,5.17
2023-03-11T23:05:11.060Z,4.20
2023-03-11T23:06:42.766Z,4.53
2023-03-11T23:08:16.244Z,4.70
2023-03-11T23:09:48.111Z,4.40
2023-03-11T23:11:21.230Z,4.67
2023-03-11T23:14:44.832Z,3.93
2023-03-11T23:16:19.569Z,3.60
2023-03-11T23:17:51.631Z,3.90
2023-03-11T23:19:23.359Z,3.83
2023-03-11T23:20:55.183Z,4.00
2023-03-11T23:22:26.868Z,4.20
2023-03-11T23:24:00.613Z,3.97
2023-03-11T23:25:33.073Z,4.10
2023-03-11T23:27:04.954Z,3.70
2023-03-11T23:28:36.848Z,4.07
2023-03-11T23:30:14.116Z,3.90
2023-03-11T23:31:45.781Z,3.80
2023-03-11T23:33:17.468Z,4.17
2023-03-11T23:34:49.197Z,3.60
2023-03-11T23:36:22.958Z,4.07
2023-03-11T23:37:54.686Z,3.83
2023-03-11T23:39:26.434Z,4.00
2023-03-11T23:40:58.323Z,3.33
2023-03-11T23:42:33.677Z,3.53
2023-03-11T23:44:05.777Z,3.80
2023-03-11T23:45:37.580Z,3.90
2023-03-11T23:47:09.328Z,4.00
2023-03-11T23:48:41.295Z,3.87
2023-03-11T23:50:13.040Z,3.70
2023-03-11T23:51:44.709Z,3.67
2023-03-11T23:53:18.780Z,4.00
2023-03-11T23:54:50.522Z,4.17
2023-03-11T23:56:22.390Z,3.70
2023-03-11T23:57:54.090Z,3.40
2023-03-11T23:59:25.774Z,2.97
